Hovedside
METAR-TAF:

METAR-TAF

Lufthavner :

Guararapes internasjonale lufthavn

Recife, Pernambuco, Brasil

breddegrad: 08-08S, lengdegrad: 034-55W, høyde over havet: 19 m

Gjeldene værobservasjon

Denne rapporten ble laget for 51 minutter siden, klokken 17:00 UTC
Vind 10 kt fra Øst-nordøst
Temperatur 29°C
Luftfuktighet 66%
Trykk 1010 hPa
Sikt 10 km eller mer
Få skyer i en høyde av 2500 ft

METAR: SBRF 211700Z 07010KT 9999 FEW025 29/22 Q1010

Tid: 14:51 (17:51 UTC)

Varsel

Denne rapporten ble laget for 2 timer og 51 minutter siden, klokken 15:00 UTC
Varsel gyldig fra 21. klokken 18 UTC til 22. klokken 18 UTC
Vind 8 kt fra Øst-nordøst
Sikt 10 km eller mer
Spredte skyer i en høyde av 2300 ft

TAF: SBRF 211500Z 2118/2218 07008KT 9999 SCT023 TN25/2209Z TX29/2214Z RMK PEA

Værobservasjoner og værvarsel for over 4000 flyplasser (METAR- og TAF-rapporter).

Tilgjengelige stasjoner er representert av de røde og gule prikkene på kartet.

Hold musepekeren over prikken for å se navnet på stasjonen.

Klikk så for å se værobservasjoner og -varsler.

For å forandre kartet kan du klikke på den grønne knappen med svart kryss for å zoome inn, på den grønne knappen med strek for å zoome ut, eller på de grønne pilene for å se tilstøtende kart.


METAR-TAF: